sensor_id;sensor_type;location;lat;lon;timestamp;temperature;humidity
30069;DHT22;16894;49.456;10.644;2023-03-01T00:01:46;-3.30;99.90
30069;DHT22;16894;49.456;10.644;2023-03-01T00:04:12;-3.20;99.90
30069;DHT22;16894;49.456;10.644;2023-03-01T00:06:37;-3.20;99.90
30069;DHT22;16894;49.456;10.644;2023-03-01T00:09:03;-3.20;99.90
30069;DHT22;16894;49.456;10.644;2023-03-01T00:11:29;-3.20;99.90
30069;DHT22;16894;49.456;10.644;2023-03-01T00:13:56;-3.20;99.90
30069;DHT22;16894;49.456;10.644;2023-03-01T00:16:24;-3.30;99.90
30069;DHT22;16894;49.456;10.644;2023-03-01T00:18:50;-3.30;99.90
30069;DHT22;16894;49.456;10.644;2023-03-01T00:21:16;-3.30;99.90
30069;DHT22;16894;49.456;10.644;2023-03-01T00:23:41;-3.30;99.90
30069;DHT22;16894;49.456;10.644;2023-03-01T00:26:08;-3.30;99.90
30069;DHT22;16894;49.456;10.644;2023-03-01T00:28:34;-3.30;99.90
30069;DHT22;16894;49.456;10.644;2023-03-01T00:31:07;-3.40;99.90
30069;DHT22;16894;49.456;10.644;2023-03-01T00:33:33;-3.40;99.90
30069;DHT22;16894;49.456;10.644;2023-03-01T00:35:59;-3.40;99.90
30069;DHT22;16894;49.456;10.644;2023-03-01T00:38:25;-3.40;99.90
30069;DHT22;16894;49.456;10.644;2023-03-01T00:40:51;-3.60;99.90
30069;DHT22;16894;49.456;10.644;2023-03-01T00:43:16;-3.70;99.90
30069;DHT22;16894;49.456;10.644;2023-03-01T00:45:42;-3.50;99.90
30069;DHT22;16894;49.456;10.644;2023-03-01T00:48:07;-3.40;99.90
30069;DHT22;16894;49.456;10.644;2023-03-01T00:50:33;-3.50;99.90
30069;DHT22;16894;49.456;10.644;2023-03-01T00:52:58;-3.50;99.90
30069;DHT22;16894;49.456;10.644;2023-03-01T00:55:24;-3.60;99.90
30069;DHT22;16894;49.456;10.644;2023-03-01T00:57:50;-3.60;99.90
30069;DHT22;16894;49.456;10.644;2023-03-01T01:00:15;-3.70;99.90
30069;DHT22;16894;49.456;10.644;2023-03-01T01:02:41;-3.90;99.90
30069;DHT22;16894;49.456;10.644;2023-03-01T01:05:07;-4.10;99.90
30069;DHT22;16894;49.456;10.644;2023-03-01T01:07:32;-4.00;99.90
30069;DHT22;16894;49.456;10.644;2023-03-01T01:09:58;-3.80;99.90
30069;DHT22;16894;49.456;10.644;2023-03-01T01:12:23;-3.80;99.90
30069;DHT22;16894;49.456;10.644;2023-03-01T01:14:49;-3.70;99.90
30069;DHT22;16894;49.456;10.644;2023-03-01T01:17:15;-3.70;99.90
30069;DHT22;16894;49.456;10.644;2023-03-01T01:19:40;-3.60;99.90
30069;DHT22;16894;49.456;10.644;2023-03-01T01:22:06;-3.70;99.90
30069;DHT22;16894;49.456;10.644;2023-03-01T01:24:31;-3.70;99.90
30069;DHT22;16894;49.456;10.644;2023-03-01T01:26:57;-3.60;99.90
30069;DHT22;16894;49.456;10.644;2023-03-01T01:29:22;-3.60;99.90
30069;DHT22;16894;49.456;10.644;2023-03-01T01:31:48;-3.60;99.90
30069;DHT22;16894;49.456;10.644;2023-03-01T01:34:15;-3.60;99.90
30069;DHT22;16894;49.456;10.644;2023-03-01T01:36:41;-3.60;99.90
30069;DHT22;16894;49.456;10.644;2023-03-01T01:39:06;-3.70;99.90
30069;DHT22;16894;49.456;10.644;2023-03-01T01:41:33;-3.60;99.90
30069;DHT22;16894;49.456;10.644;2023-03-01T01:44:12;-3.70;99.90
30069;DHT22;16894;49.456;10.644;2023-03-01T01:46:38;-3.70;99.90
30069;DHT22;16894;49.456;10.644;2023-03-01T01:49:06;-3.70;99.90
30069;DHT22;16894;49.456;10.644;2023-03-01T01:51:35;-3.60;99.90
30069;DHT22;16894;49.456;10.644;2023-03-01T01:54:06;-3.60;99.90
30069;DHT22;16894;49.456;10.644;2023-03-01T01:56:32;-3.60;99.90
30069;DHT22;16894;49.456;10.644;2023-03-01T01:58:58;-3.60;99.90
30069;DHT22;16894;49.456;10.644;2023-03-01T02:01:24;-3.60;99.90
30069;DHT22;16894;49.456;10.644;2023-03-01T02:03:49;-3.50;99.90
30069;DHT22;16894;49.456;10.644;2023-03-01T02:06:26;-3.60;99.90
30069;DHT22;16894;49.456;10.644;2023-03-01T02:08:57;-3.60;99.90
30069;DHT22;16894;49.456;10.644;2023-03-01T02:11:24;-3.60;99.90
30069;DHT22;16894;49.456;10.644;2023-03-01T02:13:51;-3.70;99.90
30069;DHT22;16894;49.456;10.644;2023-03-01T02:16:18;-3.80;99.90
30069;DHT22;16894;49.456;10.644;2023-03-01T02:18:44;-3.80;99.90
30069;DHT22;16894;49.456;10.644;2023-03-01T02:21:17;-3.80;99.90
30069;DHT22;16894;49.456;10.644;2023-03-01T02:23:45;-3.70;99.90
30069;DHT22;16894;49.456;10.644;2023-03-01T02:28:50;-3.80;99.90
30069;DHT22;16894;49.456;10.644;2023-03-01T02:31:17;-3.80;99.90
30069;DHT22;16894;49.456;10.644;2023-03-01T02:34:02;-3.80;99.90
30069;DHT22;16894;49.456;10.644;2023-03-01T02:36:37;-3.80;99.90
30069;DHT22;16894;49.456;10.644;2023-03-01T02:39:03;-3.80;99.90
30069;DHT22;16894;49.456;10.644;2023-03-01T02:41:32;-3.80;99.90
30069;DHT22;16894;49.456;10.644;2023-03-01T02:43:59;-3.80;99.90
30069;DHT22;16894;49.456;10.644;2023-03-01T02:46:26;-3.90;99.90
30069;DHT22;16894;49.456;10.644;2023-03-01T02:48:55;-3.90;99.90
30069;DHT22;16894;49.456;10.644;2023-03-01T02:57:10;-4.00;99.90
30069;DHT22;16894;49.456;10.644;2023-03-01T02:59:36;-4.00;99.90
30069;DHT22;16894;49.456;10.644;2023-03-01T03:02:05;-4.10;99.90
30069;DHT22;16894;49.456;10.644;2023-03-01T03:04:30;-4.20;99.90
30069;DHT22;16894;49.456;10.644;2023-03-01T03:06:56;-4.40;99.90
30069;DHT22;16894;49.456;10.644;2023-03-01T03:09:21;-4.50;99.90
30069;DHT22;16894;49.456;10.644;2023-03-01T03:11:46;-4.50;99.90
30069;DHT22;16894;49.456;10.644;2023-03-01T03:14:13;-4.30;99.90
30069;DHT22;16894;49.456;10.644;2023-03-01T03:16:43;-4.20;99.90
30069;DHT22;16894;49.456;10.644;2023-03-01T03:19:09;-4.10;99.90
30069;DHT22;16894;49.456;10.644;2023-03-01T03:21:35;-4.10;99.90
30069;DHT22;16894;49.456;10.644;2023-03-01T03:24:00;-4.20;99.90
30069;DHT22;16894;49.456;10.644;2023-03-01T03:26:26;-4.10;99.90
30069;DHT22;16894;49.456;10.644;2023-03-01T03:28:51;-4.10;99.90
30069;DHT22;16894;49.456;10.644;2023-03-01T03:31:17;-4.10;99.90
30069;DHT22;16894;49.456;10.644;2023-03-01T03:33:42;-4.20;99.90
30069;DHT22;16894;49.456;10.644;2023-03-01T03:36:08;-4.20;99.90
30069;DHT22;16894;49.456;10.644;2023-03-01T03:38:41;-4.20;99.90
30069;DHT22;16894;49.456;10.644;2023-03-01T03:41:07;-4.30;99.90
30069;DHT22;16894;49.456;10.644;2023-03-01T03:43:34;-4.30;99.90
30069;DHT22;16894;49.456;10.644;2023-03-01T03:46:01;-4.30;99.90
30069;DHT22;16894;49.456;10.644;2023-03-01T03:48:31;-4.40;99.90
30069;DHT22;16894;49.456;10.644;2023-03-01T03:50:58;-4.40;99.90
30069;DHT22;16894;49.456;10.644;2023-03-01T03:53:24;-4.40;99.90
30069;DHT22;16894;49.456;10.644;2023-03-01T03:55:50;-4.40;99.90
30069;DHT22;16894;49.456;10.644;2023-03-01T03:58:17;-4.40;99.90
30069;DHT22;16894;49.456;10.644;2023-03-01T04:00:45;-4.40;99.90
30069;DHT22;16894;49.456;10.644;2023-03-01T04:03:14;-4.40;99.90
30069;DHT22;16894;49.456;10.644;2023-03-01T04:05:40;-4.40;99.90
30069;DHT22;16894;49.456;10.644;2023-03-01T04:08:06;-4.40;99.90
30069;DHT22;16894;49.456;10.644;2023-03-01T04:10:38;-4.50;99.90
30069;DHT22;16894;49.456;10.644;2023-03-01T04:13:04;-4.40;99.90
30069;DHT22;16894;49.456;10.644;2023-03-01T04:15:30;-4.40;99.90
30069;DHT22;16894;49.456;10.644;2023-03-01T04:17:56;-4.40;99.90
30069;DHT22;16894;49.456;10.644;2023-03-01T04:20:22;-4.60;99.90
30069;DHT22;16894;49.456;10.644;2023-03-01T04:22:52;-4.80;99.90
30069;DHT22;16894;49.456;10.644;2023-03-01T04:25:18;-4.60;99.90
30069;DHT22;16894;49.456;10.644;2023-03-01T04:27:44;-4.60;99.90
30069;DHT22;16894;49.456;10.644;2023-03-01T04:30:09;-4.50;99.90
30069;DHT22;16894;49.456;10.644;2023-03-01T04:32:35;-4.70;99.90
30069;DHT22;16894;49.456;10.644;2023-03-01T04:35:01;-4.70;99.90
30069;DHT22;16894;49.456;10.644;2023-03-01T04:37:26;-4.70;99.90
30069;DHT22;16894;49.456;10.644;2023-03-01T04:39:52;-4.70;99.90
30069;DHT22;16894;49.456;10.644;2023-03-01T04:42:18;-4.60;99.90
30069;DHT22;16894;49.456;10.644;2023-03-01T04:44:44;-4.60;99.90
30069;DHT22;16894;49.456;10.644;2023-03-01T04:47:10;-4.70;99.90
30069;DHT22;16894;49.456;10.644;2023-03-01T04:49:35;-4.70;99.90
30069;DHT22;16894;49.456;10.644;2023-03-01T04:52:01;-4.60;99.90
30069;DHT22;16894;49.456;10.644;2023-03-01T04:54:29;-4.60;99.90
30069;DHT22;16894;49.456;10.644;2023-03-01T04:56:55;-4.70;99.90
30069;DHT22;16894;49.456;10.644;2023-03-01T04:59:21;-4.70;99.90
30069;DHT22;16894;49.456;10.644;2023-03-01T05:01:49;-4.60;99.90
30069;DHT22;16894;49.456;10.644;2023-03-01T05:04:15;-4.60;99.90
30069;DHT22;16894;49.456;10.644;2023-03-01T05:06:41;-4.60;99.90
30069;DHT22;16894;49.456;10.644;2023-03-01T05:09:06;-4.60;99.90
30069;DHT22;16894;49.456;10.644;2023-03-01T05:11:32;-4.60;99.90
30069;DHT22;16894;49.456;10.644;2023-03-01T05:14:05;-4.50;99.90
30069;DHT22;16894;49.456;10.644;2023-03-01T05:16:30;-4.60;99.90
30069;DHT22;16894;49.456;10.644;2023-03-01T05:18:57;-4.70;99.90
30069;DHT22;16894;49.456;10.644;2023-03-01T05:21:23;-4.80;99.90
30069;DHT22;16894;49.456;10.644;2023-03-01T05:23:48;-4.90;99.90
30069;DHT22;16894;49.456;10.644;2023-03-01T05:26:14;-5.00;99.90
30069;DHT22;16894;49.456;10.644;2023-03-01T05:28:40;-4.90;99.90
30069;DHT22;16894;49.456;10.644;2023-03-01T05:31:06;-4.90;99.90
30069;DHT22;16894;49.456;10.644;2023-03-01T05:33:41;-4.80;99.90
30069;DHT22;16894;49.456;10.644;2023-03-01T05:36:07;-4.90;99.90
30069;DHT22;16894;49.456;10.644;2023-03-01T05:38:33;-5.00;99.90
30069;DHT22;16894;49.456;10.644;2023-03-01T05:40:58;-5.00;99.90
30069;DHT22;16894;49.456;10.644;2023-03-01T05:43:24;-5.00;99.90
30069;DHT22;16894;49.456;10.644;2023-03-01T05:45:50;-4.90;99.90
30069;DHT22;16894;49.456;10.644;2023-03-01T05:48:16;-5.00;99.90
30069;DHT22;16894;49.456;10.644;2023-03-01T05:50:43;-4.90;99.90
30069;DHT22;16894;49.456;10.644;2023-03-01T05:53:10;-4.90;99.90
30069;DHT22;16894;49.456;10.644;2023-03-01T05:55:36;-5.00;99.90
30069;DHT22;16894;49.456;10.644;2023-03-01T05:58:03;-5.00;99.90
30069;DHT22;16894;49.456;10.644;2023-03-01T06:00:29;-5.00;99.90
30069;DHT22;16894;49.456;10.644;2023-03-01T06:02:56;-5.00;99.90
30069;DHT22;16894;49.456;10.644;2023-03-01T06:05:22;-5.00;99.90
30069;DHT22;16894;49.456;10.644;2023-03-01T06:07:47;-4.90;99.90
30069;DHT22;16894;49.456;10.644;2023-03-01T06:10:13;-5.00;99.90
30069;DHT22;16894;49.456;10.644;2023-03-01T06:12:40;-5.00;99.90
30069;DHT22;16894;49.456;10.644;2023-03-01T06:15:06;-5.00;99.90
30069;DHT22;16894;49.456;10.644;2023-03-01T06:17:32;-5.10;99.90
30069;DHT22;16894;49.456;10.644;2023-03-01T06:20:03;-5.00;99.90
30069;DHT22;16894;49.456;10.644;2023-03-01T06:22:28;-4.90;99.90
30069;DHT22;16894;49.456;10.644;2023-03-01T06:24:54;-5.00;99.90
30069;DHT22;16894;49.456;10.644;2023-03-01T06:27:19;-5.00;99.90
30069;DHT22;16894;49.456;10.644;2023-03-01T06:29:45;-5.00;99.90
30069;DHT22;16894;49.456;10.644;2023-03-01T06:32:10;-5.00;99.90
30069;DHT22;16894;49.456;10.644;2023-03-01T06:34:36;-4.90;99.90
30069;DHT22;16894;49.456;10.644;2023-03-01T06:37:01;-4.90;99.90
30069;DHT22;16894;49.456;10.644;2023-03-01T06:39:30;-4.90;99.90
30069;DHT22;16894;49.456;10.644;2023-03-01T06:41:56;-4.80;99.90
30069;DHT22;16894;49.456;10.644;2023-03-01T06:44:21;-4.80;99.90
30069;DHT22;16894;49.456;10.644;2023-03-01T06:46:47;-4.70;99.90
30069;DHT22;16894;49.456;10.644;2023-03-01T06:49:12;-4.60;99.90
30069;DHT22;16894;49.456;10.644;2023-03-01T06:51:38;-4.60;99.90
30069;DHT22;16894;49.456;10.644;2023-03-01T06:54:04;-4.50;99.90
30069;DHT22;16894;49.456;10.644;2023-03-01T06:56:30;-4.50;99.90
30069;DHT22;16894;49.456;10.644;2023-03-01T06:58:56;-4.50;99.90
30069;DHT22;16894;49.456;10.644;2023-03-01T07:01:21;-4.50;99.90
30069;DHT22;16894;49.456;10.644;2023-03-01T07:03:47;-4.40;99.90
30069;DHT22;16894;49.456;10.644;2023-03-01T07:06:12;-4.30;99.90
30069;DHT22;16894;49.456;10.644;2023-03-01T07:08:38;-4.30;99.90
30069;DHT22;16894;49.456;10.644;2023-03-01T07:11:03;-4.30;99.90
30069;DHT22;16894;49.456;10.644;2023-03-01T07:13:29;-4.30;99.90
30069;DHT22;16894;49.456;10.644;2023-03-01T07:15:55;-4.30;99.90
30069;DHT22;16894;49.456;10.644;2023-03-01T07:18:20;-4.30;99.90
30069;DHT22;16894;49.456;10.644;2023-03-01T07:20:46;-4.30;99.90
30069;DHT22;16894;49.456;10.644;2023-03-01T07:23:12;-4.20;99.90
30069;DHT22;16894;49.456;10.644;2023-03-01T07:25:37;-4.20;99.90
30069;DHT22;16894;49.456;10.644;2023-03-01T07:28:03;-4.00;99.90
30069;DHT22;16894;49.456;10.644;2023-03-01T07:30:28;-3.90;99.90
30069;DHT22;16894;49.456;10.644;2023-03-01T07:32:54;-3.70;99.90
30069;DHT22;16894;49.456;10.644;2023-03-01T07:35:20;-3.70;99.90
30069;DHT22;16894;49.456;10.644;2023-03-01T07:37:46;-3.70;99.90
30069;DHT22;16894;49.456;10.644;2023-03-01T07:40:12;-3.50;99.90
30069;DHT22;16894;49.456;10.644;2023-03-01T07:42:37;-3.30;99.90
30069;DHT22;16894;49.456;10.644;2023-03-01T07:45:03;-3.20;99.90
30069;DHT22;16894;49.456;10.644;2023-03-01T07:47:29;-3.00;99.90
30069;DHT22;16894;49.456;10.644;2023-03-01T07:49:55;-2.80;99.90
30069;DHT22;16894;49.456;10.644;2023-03-01T07:52:22;-2.60;99.90
30069;DHT22;16894;49.456;10.644;2023-03-01T07:54:47;-2.30;99.90
30069;DHT22;16894;49.456;10.644;2023-03-01T07:57:13;-2.10;99.90
30069;DHT22;16894;49.456;10.644;2023-03-01T07:59:38;-1.80;99.90
30069;DHT22;16894;49.456;10.644;2023-03-01T08:02:04;-1.60;99.90
30069;DHT22;16894;49.456;10.644;2023-03-01T08:04:30;-1.40;99.90
30069;DHT22;16894;49.456;10.644;2023-03-01T08:06:55;-1.20;99.90
30069;DHT22;16894;49.456;10.644;2023-03-01T08:09:21;-1.10;99.90
30069;DHT22;16894;49.456;10.644;2023-03-01T08:11:46;-0.90;99.90
30069;DHT22;16894;49.456;10.644;2023-03-01T08:14:12;-0.80;99.90
30069;DHT22;16894;49.456;10.644;2023-03-01T08:16:37;-0.70;99.90
30069;DHT22;16894;49.456;10.644;2023-03-01T08:19:04;-0.50;99.90
30069;DHT22;16894;49.456;10.644;2023-03-01T08:21:30;-0.30;99.90
30069;DHT22;16894;49.456;10.644;2023-03-01T08:23:55;-0.10;99.90
30069;DHT22;16894;49.456;10.644;2023-03-01T08:26:21;0.10;99.90
30069;DHT22;16894;49.456;10.644;2023-03-01T08:28:47;0.30;99.90
30069;DHT22;16894;49.456;10.644;2023-03-01T08:31:20;0.50;99.90
30069;DHT22;16894;49.456;10.644;2023-03-01T08:33:46;0.70;99.90
30069;DHT22;16894;49.456;10.644;2023-03-01T08:36:16;0.80;99.90
30069;DHT22;16894;49.456;10.644;2023-03-01T08:38:42;1.10;99.90
30069;DHT22;16894;49.456;10.644;2023-03-01T08:41:08;1.20;99.90
30069;DHT22;16894;49.456;10.644;2023-03-01T08:43:33;1.30;99.90
30069;DHT22;16894;49.456;10.644;2023-03-01T08:45:59;1.50;99.90
30069;DHT22;16894;49.456;10.644;2023-03-01T08:48:24;1.60;99.90
30069;DHT22;16894;49.456;10.644;2023-03-01T08:50:50;1.70;99.90
30069;DHT22;16894;49.456;10.644;2023-03-01T08:53:16;1.90;99.90
30069;DHT22;16894;49.456;10.644;2023-03-01T08:55:41;2.20;99.90
30069;DHT22;16894;49.456;10.644;2023-03-01T08:58:07;2.20;99.90
30069;DHT22;16894;49.456;10.644;2023-03-01T09:00:32;2.30;99.90
30069;DHT22;16894;49.456;10.644;2023-03-01T09:03:00;2.30;99.90
30069;DHT22;16894;49.456;10.644;2023-03-01T09:05:26;2.30;99.90
30069;DHT22;16894;49.456;10.644;2023-03-01T09:07:51;2.40;99.90
30069;DHT22;16894;49.456;10.644;2023-03-01T09:10:17;2.60;99.90
30069;DHT22;16894;49.456;10.644;2023-03-01T09:12:42;2.80;99.90
30069;DHT22;16894;49.456;10.644;2023-03-01T09:15:08;2.90;99.90
30069;DHT22;16894;49.456;10.644;2023-03-01T09:17:33;2.90;99.90
30069;DHT22;16894;49.456;10.644;2023-03-01T09:19:59;3.10;99.90
30069;DHT22;16894;49.456;10.644;2023-03-01T09:22:25;3.20;99.90
30069;DHT22;16894;49.456;10.644;2023-03-01T09:24:50;3.10;99.40
30069;DHT22;16894;49.456;10.644;2023-03-01T09:27:16;3.30;99.90
30069;DHT22;16894;49.456;10.644;2023-03-01T09:29:44;3.20;99.60
30069;DHT22;16894;49.456;10.644;2023-03-01T09:32:09;3.40;99.00
30069;DHT22;16894;49.456;10.644;2023-03-01T09:34:35;3.50;98.80
30069;DHT22;16894;49.456;10.644;2023-03-01T09:37:23;3.50;99.20
30069;DHT22;16894;49.456;10.644;2023-03-01T09:39:49;3.60;99.00
30069;DHT22;16894;49.456;10.644;2023-03-01T09:42:14;3.70;98.70
30069;DHT22;16894;49.456;10.644;2023-03-01T09:47:16;4.00;98.20
30069;DHT22;16894;49.456;10.644;2023-03-01T09:49:42;4.10;98.30
30069;DHT22;16894;49.456;10.644;2023-03-01T09:54:58;4.30;96.60
30069;DHT22;16894;49.456;10.644;2023-03-01T09:57:28;4.50;96.50
30069;DHT22;16894;49.456;10.644;2023-03-01T10:02:25;4.50;96.20
30069;DHT22;16894;49.456;10.644;2023-03-01T10:04:54;4.70;95.90
30069;DHT22;16894;49.456;10.644;2023-03-01T10:09:49;5.20;94.40
30069;DHT22;16894;49.456;10.644;2023-03-01T10:12:18;5.30;93.50
30069;DHT22;16894;49.456;10.644;2023-03-01T10:19:45;5.50;93.10
30069;DHT22;16894;49.456;10.644;2023-03-01T10:22:18;6.00;92.50
30069;DHT22;16894;49.456;10.644;2023-03-01T10:24:46;6.10;92.20
30069;DHT22;16894;49.456;10.644;2023-03-01T10:27:17;6.10;91.40
30069;DHT22;16894;49.456;10.644;2023-03-01T10:32:29;6.30;91.40
30069;DHT22;16894;49.456;10.644;2023-03-01T10:34:54;6.60;89.90
30069;DHT22;16894;49.456;10.644;2023-03-01T10:37:20;6.60;90.60
30069;DHT22;16894;49.456;10.644;2023-03-01T10:40:09;6.50;90.00
30069;DHT22;16894;49.456;10.644;2023-03-01T10:42:39;6.70;88.40
30069;DHT22;16894;49.456;10.644;2023-03-01T10:45:27;6.90;88.40
30069;DHT22;16894;49.456;10.644;2023-03-01T10:50:40;7.20;87.90
30069;DHT22;16894;49.456;10.644;2023-03-01T10:58:30;7.70;84.50
30069;DHT22;16894;49.456;10.644;2023-03-01T11:01:04;7.80;84.70
30069;DHT22;16894;49.456;10.644;2023-03-01T11:03:31;8.10;83.90
30069;DHT22;16894;49.456;10.644;2023-03-01T11:08:32;8.10;83.50
30069;DHT22;16894;49.456;10.644;2023-03-01T11:11:06;8.30;81.30
30069;DHT22;16894;49.456;10.644;2023-03-01T11:13:32;8.30;80.90
30069;DHT22;16894;49.456;10.644;2023-03-01T11:15:58;8.20;81.00
30069;DHT22;16894;49.456;10.644;2023-03-01T11:18:24;8.50;81.80
30069;DHT22;16894;49.456;10.644;2023-03-01T11:20:50;8.50;79.90
30069;DHT22;16894;49.456;10.644;2023-03-01T11:23:17;8.60;79.20
30069;DHT22;16894;49.456;10.644;2023-03-01T11:25:43;8.60;78.70
30069;DHT22;16894;49.456;10.644;2023-03-01T11:28:13;8.50;78.70
30069;DHT22;16894;49.456;10.644;2023-03-01T11:30:40;8.40;79.30
30069;DHT22;16894;49.456;10.644;2023-03-01T11:33:15;8.40;77.90
30069;DHT22;16894;49.456;10.644;2023-03-01T11:35:53;8.30;78.50
30069;DHT22;16894;49.456;10.644;2023-03-01T11:38:22;8.30;79.50
30069;DHT22;16894;49.456;10.644;2023-03-01T11:51:41;7.40;80.90
30069;DHT22;16894;49.456;10.644;2023-03-01T11:56:46;7.40;80.40
30069;DHT22;16894;49.456;10.644;2023-03-01T12:07:12;7.30;81.20
30069;DHT22;16894;49.456;10.644;2023-03-01T12:14:53;7.60;80.40
30069;DHT22;16894;49.456;10.644;2023-03-01T12:25:25;7.90;79.60
30069;DHT22;16894;49.456;10.644;2023-03-01T12:33:24;8.30;78.60
30069;DHT22;16894;49.456;10.644;2023-03-01T12:41:21;8.70;77.00
30069;DHT22;16894;49.456;10.644;2023-03-01T12:44:01;8.70;77.20
30069;DHT22;16894;49.456;10.644;2023-03-01T12:49:37;9.10;76.20
30069;DHT22;16894;49.456;10.644;2023-03-01T12:54:36;9.90;73.70
30069;DHT22;16894;49.456;10.644;2023-03-01T12:57:05;10.80;72.90
30069;DHT22;16894;49.456;10.644;2023-03-01T12:59:34;11.70;71.00
30069;DHT22;16894;49.456;10.644;2023-03-01T13:04:52;13.00;69.30
30069;DHT22;16894;49.456;10.644;2023-03-01T13:07:29;13.60;66.60
30069;DHT22;16894;49.456;10.644;2023-03-01T13:15:16;13.20;64.30
30069;DHT22;16894;49.456;10.644;2023-03-01T13:17:50;14.20;62.80
30069;DHT22;16894;49.456;10.644;2023-03-01T13:20:16;15.20;61.30
30069;DHT22;16894;49.456;10.644;2023-03-01T13:22:42;15.00;60.70
30069;DHT22;16894;49.456;10.644;2023-03-01T13:25:13;15.40;60.20
30069;DHT22;16894;49.456;10.644;2023-03-01T13:27:39;14.60;60.60
30069;DHT22;16894;49.456;10.644;2023-03-01T13:30:12;14.80;60.00
30069;DHT22;16894;49.456;10.644;2023-03-01T13:32:50;15.00;58.60
30069;DHT22;16894;49.456;10.644;2023-03-01T13:37:44;15.20;58.80
30069;DHT22;16894;49.456;10.644;2023-03-01T13:42:44;14.50;59.00
30069;DHT22;16894;49.456;10.644;2023-03-01T13:47:43;14.30;60.20
30069;DHT22;16894;49.456;10.644;2023-03-01T13:50:16;14.60;59.20
30069;DHT22;16894;49.456;10.644;2023-03-01T13:52:44;14.50;59.40
30069;DHT22;16894;49.456;10.644;2023-03-01T13:57:36;14.40;59.90
30069;DHT22;16894;49.456;10.644;2023-03-01T14:00:04;14.50;59.80
30069;DHT22;16894;49.456;10.644;2023-03-01T14:02:30;14.30;59.20
30069;DHT22;16894;49.456;10.644;2023-03-01T14:04:58;14.20;59.40
30069;DHT22;16894;49.456;10.644;2023-03-01T14:07:23;14.40;60.00
30069;DHT22;16894;49.456;10.644;2023-03-01T14:09:59;14.30;59.10
30069;DHT22;16894;49.456;10.644;2023-03-01T14:12:30;14.90;59.90
30069;DHT22;16894;49.456;10.644;2023-03-01T14:15:02;14.40;58.90
30069;DHT22;16894;49.456;10.644;2023-03-01T14:20:41;15.30;57.90
30069;DHT22;16894;49.456;10.644;2023-03-01T14:22:47;14.70;58.50
30069;DHT22;16894;49.456;10.644;2023-03-01T14:25:17;14.40;59.20
30069;DHT22;16894;49.456;10.644;2023-03-01T14:27:44;14.70;58.80
30069;DHT22;16894;49.456;10.644;2023-03-01T14:32:35;15.00;59.10
30069;DHT22;16894;49.456;10.644;2023-03-01T14:35:01;13.90;59.90
30069;DHT22;16894;49.456;10.644;2023-03-01T14:37:30;12.90;61.40
30069;DHT22;16894;49.456;10.644;2023-03-01T14:39:57;12.10;62.80
30069;DHT22;16894;49.456;10.644;2023-03-01T14:42:23;10.80;66.50
30069;DHT22;16894;49.456;10.644;2023-03-01T14:44:50;9.70;67.90
30069;DHT22;16894;49.456;10.644;2023-03-01T14:47:23;9.20;69.50
30069;DHT22;16894;49.456;10.644;2023-03-01T14:49:51;8.90;71.60
30069;DHT22;16894;49.456;10.644;2023-03-01T14:52:22;8.60;72.20
30069;DHT22;16894;49.456;10.644;2023-03-01T14:54:51;8.40;73.00
30069;DHT22;16894;49.456;10.644;2023-03-01T14:57:22;8.20;74.00
30069;DHT22;16894;49.456;10.644;2023-03-01T14:59:48;8.10;74.00
30069;DHT22;16894;49.456;10.644;2023-03-01T15:02:17;8.00;75.10
30069;DHT22;16894;49.456;10.644;2023-03-01T15:04:48;7.90;75.60
30069;DHT22;16894;49.456;10.644;2023-03-01T15:07:14;7.90;76.70
30069;DHT22;16894;49.456;10.644;2023-03-01T15:09:40;7.90;77.10
30069;DHT22;16894;49.456;10.644;2023-03-01T15:14:50;7.90;77.60
30069;DHT22;16894;49.456;10.644;2023-03-01T15:17:33;7.80;77.60
30069;DHT22;16894;49.456;10.644;2023-03-01T15:20:00;7.80;78.20
30069;DHT22;16894;49.456;10.644;2023-03-01T15:22:26;7.80;78.90
30069;DHT22;16894;49.456;10.644;2023-03-01T15:24:52;7.80;79.60
30069;DHT22;16894;49.456;10.644;2023-03-01T15:27:19;7.80;79.10
30069;DHT22;16894;49.456;10.644;2023-03-01T15:29:55;7.70;80.10
30069;DHT22;16894;49.456;10.644;2023-03-01T15:32:28;7.70;80.50
30069;DHT22;16894;49.456;10.644;2023-03-01T15:34:54;7.70;80.90
30069;DHT22;16894;49.456;10.644;2023-03-01T15:42:45;7.60;81.30
30069;DHT22;16894;49.456;10.644;2023-03-01T15:47:47;7.50;81.60
30069;DHT22;16894;49.456;10.644;2023-03-01T15:50:16;7.40;82.20
30069;DHT22;16894;49.456;10.644;2023-03-01T15:52:42;7.40;82.00
30069;DHT22;16894;49.456;10.644;2023-03-01T15:55:18;7.30;81.90
30069;DHT22;16894;49.456;10.644;2023-03-01T15:57:44;7.20;82.50
30069;DHT22;16894;49.456;10.644;2023-03-01T16:00:10;7.20;83.30
30069;DHT22;16894;49.456;10.644;2023-03-01T16:02:39;7.20;83.70
30069;DHT22;16894;49.456;10.644;2023-03-01T16:05:06;7.10;83.30
30069;DHT22;16894;49.456;10.644;2023-03-01T16:07:34;7.00;84.30
30069;DHT22;16894;49.456;10.644;2023-03-01T16:10:04;7.00;84.30
30069;DHT22;16894;49.456;10.644;2023-03-01T16:12:30;7.00;84.00
30069;DHT22;16894;49.456;10.644;2023-03-01T16:14:55;6.90;85.00
30069;DHT22;16894;49.456;10.644;2023-03-01T16:17:23;6.90;85.60
30069;DHT22;16894;49.456;10.644;2023-03-01T16:19:48;6.80;87.00
30069;DHT22;16894;49.456;10.644;2023-03-01T16:22:14;6.70;87.30
30069;DHT22;16894;49.456;10.644;2023-03-01T16:24:39;6.70;87.60
30069;DHT22;16894;49.456;10.644;2023-03-01T16:27:06;6.60;87.80
30069;DHT22;16894;49.456;10.644;2023-03-01T16:29:32;6.50;88.50
30069;DHT22;16894;49.456;10.644;2023-03-01T16:31:59;6.50;89.10
30069;DHT22;16894;49.456;10.644;2023-03-01T16:34:26;6.40;89.80
30069;DHT22;16894;49.456;10.644;2023-03-01T16:36:51;6.30;89.30
30069;DHT22;16894;49.456;10.644;2023-03-01T16:39:17;6.30;89.80
30069;DHT22;16894;49.456;10.644;2023-03-01T16:41:42;6.20;90.20
30069;DHT22;16894;49.456;10.644;2023-03-01T16:44:08;6.20;90.30
30069;DHT22;16894;49.456;10.644;2023-03-01T16:46:33;6.10;90.60
30069;DHT22;16894;49.456;10.644;2023-03-01T16:48:59;6.00;90.60
30069;DHT22;16894;49.456;10.644;2023-03-01T16:51:25;6.00;90.70
30069;DHT22;16894;49.456;10.644;2023-03-01T16:53:50;5.90;91.10
30069;DHT22;16894;49.456;10.644;2023-03-01T16:56:16;5.80;91.40
30069;DHT22;16894;49.456;10.644;2023-03-01T16:58:42;5.70;91.90
30069;DHT22;16894;49.456;10.644;2023-03-01T17:01:09;5.60;92.10
30069;DHT22;16894;49.456;10.644;2023-03-01T17:03:36;5.50;92.50
30069;DHT22;16894;49.456;10.644;2023-03-01T17:06:03;5.40;92.70
30069;DHT22;16894;49.456;10.644;2023-03-01T17:08:29;5.30;93.20
30069;DHT22;16894;49.456;10.644;2023-03-01T17:11:46;5.20;93.80
30069;DHT22;16894;49.456;10.644;2023-03-01T17:14:12;5.40;95.50
30069;DHT22;16894;49.456;10.644;2023-03-01T17:16:38;5.20;94.50
30069;DHT22;16894;49.456;10.644;2023-03-01T17:19:03;5.10;94.90
30069;DHT22;16894;49.456;10.644;2023-03-01T17:21:29;5.00;95.10
30069;DHT22;16894;49.456;10.644;2023-03-01T17:23:56;4.90;95.40
30069;DHT22;16894;49.456;10.644;2023-03-01T17:26:22;4.80;95.40